Photo de Laille
https://tgftp.nws.noaa.gov/data/observations/metar/stations/LFRN.TXT2020/07/14 04:00 LFRN 140400Z AUTO 24002KT 9999 BKN030 BKN042 BKN130 14/11 Q1020 TEMPO 4000 RADZ BKN010
Rennes
nuageux
Metar : 2020/07/14 04:00 LFRN 140400Z AUTO 24002KT 9999 BKN030 BKN042 BKN130 14/11 Q1020 TEMPO 4000 RADZ BKN010
Couverture nuageuse : Mostly Cloudy 3000 ft Mostly Cloudy 4200 ft Mostly Cloudy 13000 ft
Pression de 30.12 inHg (1020 hPa)
Humidité : 82%
Température : 57°F (14°C)
Vent de WSW at 2 mph (4 km/h)
Visibilité : 6 miles (10 km)
Nantes
Ciel dégagé
Metar : 2020/07/14 04:00 LFRS 140400Z AUTO 36003KT CAVOK 13/09 Q1020 NOSIG
Couverture nuageuse :
Traduc : Partly cloudy 700 ft
Pression de 30.12 inHg (1020 hPa)
Humidité : 77%
Température : 55°F (13°C)
Point de rosée : 48°F (9°C)
Vent de N at 3 mph (6 km/h)
Visibilité : greater than 7 miles (10 km)
Lannion
Brume, couvert
Metar : 2020/07/14 04:00 LFRO 140400Z AUTO 26011KT 1900 BR OVC002 16/15 Q1020
Couverture nuageuse : Overcast 200 ft
Traduc : Partly cloudy 700 ft
Pression de 30.12 inHg (1020 hPa)
Humidité : 94%
Température : 61°F (16°C)
Point de rosée : 59°F (15°C)
Vent de W at 13 mph (20 km/h)
Visibilité : 1 mile (2 km)
Dinard
couvert
Metar : 2020/07/14 04:00 LFRD 140400Z AUTO 24005KT 9999 OVC008 15/14 Q1019 TEMPO 3000 RADZ
Couverture nuageuse : Overcast 800 ft
Traduc : Partly cloudy 700 ft
Pression de 30.09 inHg (1019 hPa)
Humidité : 94%
Température : 59°F (15°C)
Point de rosée : 57°F (14°C)
Vent de WSW at 6 mph (9 km/h)
Visibilité : 6 miles (10 km)
Brest
couvert
Metar : 2020/07/14 04:00 LFRB 140400Z AUTO 28005KT 9999 OVC003 16/15 Q1020 TEMPO 0800 FG VV///
Couverture nuageuse : Overcast 300 ft
Traduc : Partly cloudy 700 ft
Pression de 30.12 inHg (1020 hPa)
Humidité : 94%
Température : 61°F (16°C)
Point de rosée : 59°F (15°C)
Vent de W at 6 mph (9 km/h)
Visibilité : 6 miles (10 km)
Quimper
couvert
Metar : 2020/07/14 04:00 LFRQ 140400Z AUTO 29005KT 9999 BKN008 OVC013 16/15 Q1021
Couverture nuageuse : Mostly Cloudy 800 ft Overcast 1300 ft
Traduc : Partly cloudy 700 ft
Pression de 30.15 inHg (1021 hPa)
Humidité : 94%
Température : 61°F (16°C)
Point de rosée : 59°F (15°C)
Vent de WNW at 6 mph (9 km/h)
Visibilité : 6 miles (10 km)
St Nazaire
Ciel dégagé
Metar : 2020/07/14 04:00 LFRZ 140400Z AUTO 31003KT 280V350 CAVOK 14/11 Q1020 NOSIG
Couverture nuageuse :
Traduc : Partly cloudy 700 ft
Pression de 30.12 inHg (1020 hPa)
Humidité : 82%
Température : 57°F (14°C)
Point de rosée : 52°F (11°C)
Vent de NW at 3 mph (6 km/h)
Visibilité : greater than 7 miles (10 km)
St Brieuc
Ciel dégagé
Metar : 2020/07/13 21:00 LFRT 132100Z AUTO 30005KT CAVOK 15/09 Q1023
Couverture nuageuse :
Traduc : Partly cloudy 700 ft
Pression de 30.21 inHg (1023 hPa)
Humidité : 68%
Température : 59°F (15°C)
Point de rosée : 48°F (9°C)
Vent de WNW at 6 mph (9 km/h)
Visibilité : greater than 7 miles (10 km)
Lorient
couvert
Metar : 2020/07/14 04:00 LFRH 140400Z AUTO 27003KT 9999 BKN036 OVC054 14/11 Q1020 TEMPO 3000 -RADZ BKN005
Couverture nuageuse : Mostly Cloudy 3600 ft Overcast 5400 ft
Traduc : Partly cloudy 700 ft
Pression de 30.12 inHg (1020 hPa)
Humidité : 82%
Température : 57°F (14°C)
Point de rosée : 52°F (11°C)
Vent de W at 3 mph (6 km/h)
Visibilité : 6 miles (10 km)
Vannes-Meucon
Ciel dégagé
Metar : 2020/07/14 04:00 LFRV 140400Z AUTO 00000KT CAVOK 12/09 Q1020
Couverture nuageuse :
Traduc : Partly cloudy 700 ft
Pression de 30.12 inHg (1020 hPa)
Humidité : 82%
Température : 54°F (12°C)
Point de rosée : 48°F (9°C)
Vent de calm
Visibilité : greater than 7 miles (10 km)

 


   Weather Underground PWS IBRETAGN39      Weather Underground PWS IBRETAGN39Retour Météo-Laillé adhérent de Météo-Bretagne et d'Infoclimat. Données mises à jour en temps réel via Météolink Climatologie réalisée sous Wswin et GraphWeather.

Affichage prévisions météo de WeatherUnderground via script PHP de Saratoga.

Copyright 2012-2018